createdAt,value
2018-12-14T00:00:23.524Z,4.10
2018-12-14T00:01:23.508Z,2.50
2018-12-14T00:02:23.496Z,3.30
2018-12-14T00:03:23.511Z,3.10
2018-12-14T00:04:23.486Z,3.00
2018-12-14T00:05:23.476Z,2.80
2018-12-14T00:06:23.462Z,2.30
2018-12-14T00:07:24.221Z,2.70
2018-12-14T00:08:23.467Z,2.50
2018-12-14T00:09:24.206Z,2.60
2018-12-14T00:10:23.412Z,3.20
2018-12-14T00:11:23.395Z,2.90
2018-12-14T00:12:23.388Z,3.80
2018-12-14T00:13:23.394Z,2.10
2018-12-14T00:14:23.377Z,3.10
2018-12-14T00:15:24.208Z,2.50
2018-12-14T00:16:23.351Z,3.40
2018-12-14T00:17:23.333Z,3.20
2018-12-14T00:18:23.339Z,2.80
2018-12-14T00:19:23.315Z,2.60
2018-12-14T00:20:23.300Z,3.10
2018-12-14T00:21:23.293Z,2.60
2018-12-14T00:22:23.290Z,2.70
2018-12-14T00:23:23.292Z,2.70
2018-12-14T00:24:23.258Z,2.50
2018-12-14T00:25:23.249Z,2.40
2018-12-14T00:26:23.236Z,3.30
2018-12-14T00:27:24.206Z,2.70
2018-12-14T00:28:23.234Z,3.10
2018-12-14T00:29:23.716Z,2.90
2018-12-14T00:30:23.195Z,2.90
2018-12-14T00:31:23.184Z,3.00
2018-12-14T00:32:23.707Z,2.40
2018-12-14T00:33:23.220Z,2.60
2018-12-14T00:34:23.151Z,3.00
2018-12-14T00:35:23.143Z,2.30
2018-12-14T00:36:23.128Z,2.60
2018-12-14T00:37:23.710Z,2.20
2018-12-14T00:38:23.140Z,2.60
2018-12-14T00:39:23.098Z,3.40
2018-12-14T00:40:23.086Z,4.10
2018-12-14T00:41:23.080Z,2.90
2018-12-14T00:42:23.063Z,2.70
2018-12-14T00:43:23.076Z,3.20
2018-12-14T00:44:23.044Z,2.50
2018-12-14T00:45:23.030Z,3.40
2018-12-14T00:46:23.026Z,2.20
2018-12-14T00:47:23.012Z,3.10
2018-12-14T00:48:23.025Z,3.30
2018-12-14T00:49:22.991Z,3.00
2018-12-14T00:50:22.980Z,2.60
2018-12-14T00:51:22.967Z,3.20
2018-12-14T00:52:22.953Z,2.80
2018-12-14T00:53:22.965Z,2.60
2018-12-14T00:54:23.712Z,1.80
2018-12-14T00:55:22.931Z,2.60
2018-12-14T00:56:22.911Z,3.10
2018-12-14T00:57:22.902Z,2.30
2018-12-14T00:58:23.282Z,2.60
2018-12-14T00:59:22.886Z,2.60
2018-12-14T01:00:23.715Z,2.30
2018-12-14T01:01:22.867Z,3.20
2018-12-14T01:02:22.845Z,2.90
2018-12-14T01:03:22.856Z,2.30
2018-12-14T01:04:22.823Z,3.50
2018-12-14T01:05:22.818Z,3.20
2018-12-14T01:06:22.808Z,2.80
2018-12-14T01:07:23.718Z,2.20
2018-12-14T01:08:22.816Z,2.50
2018-12-14T01:09:23.711Z,2.60
2018-12-14T01:10:22.762Z,2.30
2018-12-14T01:11:22.755Z,2.40
2018-12-14T01:12:23.713Z,2.20
2018-12-14T01:13:22.750Z,2.40
2018-12-14T01:14:22.714Z,2.60
2018-12-14T01:15:22.704Z,3.20
2018-12-14T01:16:22.713Z,3.50
2018-12-14T01:17:23.250Z,1.80
2018-12-14T01:18:22.731Z,2.40
2018-12-14T01:19:22.672Z,2.80
2018-12-14T01:20:22.656Z,2.60
2018-12-14T01:21:23.223Z,2.40
2018-12-14T01:22:23.299Z,3.10
2018-12-14T01:23:22.647Z,2.50
2018-12-14T01:24:22.609Z,2.60
2018-12-14T01:25:22.597Z,2.60
2018-12-14T01:26:22.584Z,2.60
2018-12-14T01:27:22.577Z,2.50
2018-12-14T01:28:22.736Z,2.60
2018-12-14T01:29:22.571Z,2.60
2018-12-14T01:30:22.548Z,2.80
2018-12-14T01:31:22.551Z,2.50
2018-12-14T01:32:22.523Z,2.50
2018-12-14T01:33:22.539Z,2.10
2018-12-14T01:34:22.516Z,2.50
2018-12-14T01:35:22.491Z,2.40
2018-12-14T01:36:23.232Z,2.70
2018-12-14T01:37:22.466Z,2.90
2018-12-14T01:38:22.675Z,3.50
2018-12-14T01:39:22.453Z,2.60
2018-12-14T01:40:22.439Z,3.60
2018-12-14T01:41:23.220Z,2.20
2018-12-14T01:42:22.473Z,2.40
2018-12-14T01:43:22.401Z,2.40
2018-12-14T01:44:22.412Z,2.30
2018-12-14T01:45:22.382Z,2.50
2018-12-14T01:46:22.373Z,2.10
2018-12-14T01:47:22.370Z,2.20
2018-12-14T01:48:22.346Z,2.70
2018-12-14T01:49:22.354Z,2.00
2018-12-14T01:50:22.326Z,1.80
2018-12-14T01:51:22.313Z,2.70
2018-12-14T01:52:22.304Z,2.10
2018-12-14T01:53:22.307Z,2.90
2018-12-14T01:54:22.308Z,2.30
2018-12-14T01:55:22.274Z,2.60
2018-12-14T01:56:22.332Z,2.30
2018-12-14T01:57:22.253Z,2.20
2018-12-14T01:58:23.216Z,2.00
2018-12-14T01:59:22.242Z,2.10
2018-12-14T02:00:22.213Z,2.90
2018-12-14T02:01:22.201Z,2.50
2018-12-14T02:02:22.197Z,2.50
2018-12-14T02:03:22.182Z,2.10
2018-12-14T02:04:22.227Z,2.00
2018-12-14T02:05:22.164Z,2.10
2018-12-14T02:06:22.157Z,2.80
2018-12-14T02:07:22.147Z,3.60
2018-12-14T02:08:22.133Z,1.70
2018-12-14T02:09:22.141Z,2.30
2018-12-14T02:10:22.104Z,2.20
2018-12-14T02:11:22.100Z,2.30
2018-12-14T02:12:22.089Z,1.70
2018-12-14T02:13:22.076Z,2.50
2018-12-14T02:14:22.224Z,2.50
2018-12-14T02:15:22.714Z,2.70
2018-12-14T02:16:22.043Z,1.90
2018-12-14T02:17:22.035Z,3.40
2018-12-14T02:18:22.019Z,2.20
2018-12-14T02:19:22.029Z,2.30
2018-12-14T02:20:21.998Z,2.20
2018-12-14T02:21:22.048Z,2.40
2018-12-14T02:22:21.985Z,1.70
2018-12-14T02:23:21.974Z,3.30
2018-12-14T02:24:21.993Z,2.40
2018-12-14T02:25:21.948Z,2.30
2018-12-14T02:26:21.980Z,2.00
2018-12-14T02:27:22.729Z,3.20
2018-12-14T02:28:22.714Z,2.60
2018-12-14T02:29:21.920Z,2.70
2018-12-14T02:30:21.912Z,2.30
2018-12-14T02:31:22.725Z,2.10
2018-12-14T02:32:21.874Z,2.20
2018-12-14T02:33:21.859Z,2.50
2018-12-14T02:34:21.864Z,2.30
2018-12-14T02:35:21.839Z,2.00
2018-12-14T02:36:21.834Z,1.60
2018-12-14T02:37:21.827Z,1.90
2018-12-14T02:38:21.813Z,2.00
2018-12-14T02:39:22.245Z,1.70
2018-12-14T02:40:21.783Z,2.90
2018-12-14T02:41:21.770Z,2.10
2018-12-14T02:42:21.763Z,2.40
2018-12-14T02:43:21.763Z,1.90
2018-12-14T02:44:21.767Z,3.00
2018-12-14T02:45:21.733Z,2.00
2018-12-14T02:46:21.721Z,1.80
2018-12-14T02:47:21.717Z,1.90
2018-12-14T02:48:21.710Z,1.50
2018-12-14T02:49:21.750Z,1.90
2018-12-14T02:50:22.238Z,1.70
2018-12-14T02:51:21.669Z,1.80
2018-12-14T02:52:21.654Z,2.00
2018-12-14T02:53:21.645Z,1.60
2018-12-14T02:54:21.660Z,2.10
2018-12-14T02:55:21.660Z,2.40
2018-12-14T02:56:22.232Z,1.90
2018-12-14T02:57:22.219Z,2.10
2018-12-14T02:58:21.589Z,2.70
2018-12-14T02:59:21.593Z,2.50
2018-12-14T03:00:22.236Z,2.00
2018-12-14T03:01:22.218Z,1.90
2018-12-14T03:02:21.554Z,2.80
2018-12-14T03:03:21.546Z,1.90
2018-12-14T03:04:21.543Z,2.10
2018-12-14T03:05:21.518Z,1.70
2018-12-14T03:06:21.506Z,1.90
2018-12-14T03:07:22.224Z,1.70
2018-12-14T03:08:21.495Z,2.10
2018-12-14T03:09:21.495Z,2.70
2018-12-14T03:10:22.217Z,1.80
2018-12-14T03:11:21.450Z,1.90
2018-12-14T03:12:26.718Z,2.20
2018-12-14T03:13:21.424Z,2.90
2018-12-14T03:14:21.563Z,2.60
2018-12-14T03:15:21.430Z,2.10
2018-12-14T03:16:21.412Z,1.80
2018-12-14T03:17:21.383Z,1.70
2018-12-14T03:18:22.219Z,2.10
2018-12-14T03:19:21.379Z,1.60
2018-12-14T03:20:21.375Z,2.20
2018-12-14T03:21:21.335Z,1.80
2018-12-14T03:22:22.235Z,2.10
2018-12-14T03:23:21.339Z,1.90
2018-12-14T03:24:21.330Z,2.10
2018-12-14T03:25:21.322Z,2.60
2018-12-14T03:26:21.292Z,2.40
2018-12-14T03:27:22.220Z,1.70
2018-12-14T03:28:21.271Z,1.60
2018-12-14T03:29:21.729Z,1.70
2018-12-14T03:30:21.324Z,1.90
2018-12-14T03:31:21.248Z,2.10
2018-12-14T03:32:21.221Z,1.70
2018-12-14T03:33:21.209Z,2.40
2018-12-14T03:34:21.273Z,1.70
2018-12-14T03:35:21.232Z,2.00
2018-12-14T03:36:21.176Z,1.90
2018-12-14T03:37:21.222Z,1.80
2018-12-14T03:38:21.158Z,2.40
2018-12-14T03:39:21.213Z,1.80
2018-12-14T03:40:21.272Z,1.60
2018-12-14T03:41:21.127Z,2.60
2018-12-14T03:42:21.120Z,2.20
2018-12-14T03:43:21.094Z,1.60
2018-12-14T03:44:21.237Z,1.80
2018-12-14T03:45:21.099Z,2.30
2018-12-14T03:46:21.079Z,1.70
2018-12-14T03:47:21.725Z,1.70
2018-12-14T03:48:21.724Z,1.90
2018-12-14T03:49:21.031Z,1.80
2018-12-14T03:50:21.066Z,1.50
2018-12-14T03:51:21.026Z,1.60
2018-12-14T03:52:21.018Z,2.30
2018-12-14T03:53:21.016Z,1.50
2018-12-14T03:54:20.977Z,1.90
2018-12-14T03:55:21.028Z,1.80
2018-12-14T03:56:21.751Z,1.90
2018-12-14T03:57:20.953Z,1.40
2018-12-14T03:58:21.725Z,1.60
2018-12-14T03:59:20.920Z,1.60
2018-12-14T04:00:20.957Z,1.80
2018-12-14T04:01:20.904Z,2.20
2018-12-14T04:02:20.890Z,1.50
2018-12-14T04:03:20.893Z,1.90
2018-12-14T04:04:20.893Z,1.80
2018-12-14T04:05:20.935Z,1.70
2018-12-14T04:06:20.854Z,1.90
2018-12-14T04:07:20.900Z,2.80
2018-12-14T04:08:21.760Z,1.60
2018-12-14T04:09:21.735Z,1.60
2018-12-14T04:10:20.855Z,1.50
2018-12-14T04:11:20.808Z,1.60
2018-12-14T04:12:20.782Z,1.80
2018-12-14T04:13:20.775Z,1.40
2018-12-14T04:14:21.733Z,2.00
2018-12-14T04:15:20.820Z,1.70
2018-12-14T04:16:21.742Z,1.60
2018-12-14T04:17:20.777Z,2.80
2018-12-14T04:18:21.228Z,1.70
2018-12-14T04:19:20.734Z,2.00
2018-12-14T04:20:20.732Z,2.10
2018-12-14T04:21:21.311Z,2.10
2018-12-14T04:22:20.681Z,1.70
2018-12-14T04:23:20.664Z,2.60
2018-12-14T04:24:20.661Z,1.50
2018-12-14T04:25:20.672Z,1.80
2018-12-14T04:26:20.653Z,1.70
2018-12-14T04:27:20.667Z,2.10
2018-12-14T04:28:20.622Z,1.90
2018-12-14T04:29:21.233Z,1.40
2018-12-14T04:30:20.605Z,1.70
2018-12-14T04:31:21.344Z,1.80
2018-12-14T04:32:20.576Z,1.70
2018-12-14T04:33:20.568Z,1.40
2018-12-14T04:34:20.559Z,1.90
2018-12-14T04:35:20.614Z,1.70
2018-12-14T04:36:20.549Z,1.70
2018-12-14T04:37:20.515Z,2.00
2018-12-14T04:38:21.249Z,2.30
2018-12-14T04:39:20.505Z,1.30
2018-12-14T04:40:20.736Z,1.80
2018-12-14T04:41:20.495Z,1.30
2018-12-14T04:42:20.461Z,1.30
2018-12-14T04:43:21.234Z,1.50
2018-12-14T04:44:21.228Z,1.90
2018-12-14T04:45:20.768Z,1.40
2018-12-14T04:46:20.460Z,1.20
2018-12-14T04:47:20.404Z,1.40
2018-12-14T04:48:20.399Z,1.70
2018-12-14T04:49:20.391Z,1.20
2018-12-14T04:50:20.393Z,1.20
2018-12-14T04:51:20.375Z,1.70
2018-12-14T04:52:21.245Z,1.40
2018-12-14T04:53:21.239Z,1.90
2018-12-14T04:54:20.340Z,1.60
2018-12-14T04:55:20.744Z,1.10
2018-12-14T04:56:20.322Z,1.70
2018-12-14T04:57:20.298Z,1.40
2018-12-14T04:58:20.284Z,1.80
2018-12-14T04:59:20.273Z,1.50
2018-12-14T05:00:20.285Z,1.40
2018-12-14T05:01:20.273Z,1.70
2018-12-14T05:02:20.260Z,1.30
2018-12-14T05:03:20.236Z,1.50
2018-12-14T05:04:20.241Z,1.80
2018-12-14T05:05:20.247Z,1.80
2018-12-14T05:06:20.204Z,1.60
2018-12-14T05:07:20.727Z,1.60
2018-12-14T05:08:20.181Z,1.20
2018-12-14T05:09:20.168Z,1.50
2018-12-14T05:10:20.168Z,1.80
2018-12-14T05:11:20.140Z,1.30
2018-12-14T05:12:20.132Z,1.50
2018-12-14T05:13:20.126Z,1.90
2018-12-14T05:14:20.113Z,1.60
2018-12-14T05:15:20.177Z,1.70
2018-12-14T05:16:20.096Z,1.90
2018-12-14T05:17:20.101Z,1.50
2018-12-14T05:18:20.064Z,1.20
2018-12-14T05:19:20.060Z,1.20
2018-12-14T05:20:20.238Z,1.40
2018-12-14T05:21:20.044Z,1.30
2018-12-14T05:22:20.028Z,1.60
2018-12-14T05:23:20.756Z,1.30
2018-12-14T05:24:20.102Z,1.30
2018-12-14T05:25:20.022Z,1.30
2018-12-14T05:26:19.978Z,1.20
2018-12-14T05:27:19.993Z,1.50
2018-12-14T05:28:19.954Z,1.20
2018-12-14T05:29:19.955Z,1.50
2018-12-14T05:30:19.967Z,1.50
2018-12-14T05:31:19.939Z,1.30
2018-12-14T05:32:19.913Z,1.50
2018-12-14T05:33:19.911Z,1.50
2018-12-14T05:34:19.929Z,1.40
2018-12-14T05:35:20.300Z,1.20
2018-12-14T05:36:19.895Z,1.60
2018-12-14T05:37:19.865Z,1.60
2018-12-14T05:38:19.860Z,1.50
2018-12-14T05:39:19.852Z,1.60
2018-12-14T05:40:19.850Z,1.00
2018-12-14T05:41:20.765Z,1.20
2018-12-14T05:42:19.809Z,1.40
2018-12-14T05:43:19.793Z,1.40
2018-12-14T05:44:19.782Z,1.20
2018-12-14T05:45:19.788Z,1.20
2018-12-14T05:46:20.731Z,1.30
2018-12-14T05:47:19.784Z,1.10
2018-12-14T05:48:20.736Z,1.10
2018-12-14T05:49:19.727Z,1.20
2018-12-14T05:50:19.732Z,1.10
2018-12-14T05:51:19.704Z,0.90
2018-12-14T05:52:20.236Z,1.20
2018-12-14T05:53:20.238Z,1.20
2018-12-14T05:54:19.671Z,1.40
2018-12-14T05:55:19.670Z,1.50
2018-12-14T05:56:19.670Z,1.40
2018-12-14T05:57:20.240Z,2.00
2018-12-14T05:58:20.227Z,1.20
2018-12-14T05:59:19.614Z,1.90
2018-12-14T06:00:20.228Z,1.10
2018-12-14T06:01:19.616Z,1.50
2018-12-14T06:02:19.583Z,1.40
2018-12-14T06:03:19.578Z,1.30
2018-12-14T06:04:19.563Z,1.20
2018-12-14T06:05:20.233Z,0.90
2018-12-14T06:06:19.583Z,1.60
2018-12-14T06:07:19.528Z,1.00
2018-12-14T06:08:20.245Z,1.20
2018-12-14T06:09:20.238Z,1.50
2018-12-14T06:10:19.593Z,1.50
2018-12-14T06:11:19.548Z,1.20
2018-12-14T06:12:19.473Z,1.20
2018-12-14T06:13:20.233Z,1.70
2018-12-14T06:14:19.451Z,1.30
2018-12-14T06:15:20.253Z,1.30
2018-12-14T06:16:19.456Z,1.20
2018-12-14T06:17:19.417Z,1.30
2018-12-14T06:18:20.227Z,1.20
2018-12-14T06:19:19.397Z,1.10
2018-12-14T06:20:19.383Z,1.50
2018-12-14T06:21:19.782Z,1.20
2018-12-14T06:22:19.401Z,1.50
2018-12-14T06:23:19.355Z,1.10
2018-12-14T06:24:19.390Z,1.40
2018-12-14T06:25:20.261Z,1.50
2018-12-14T06:26:19.771Z,1.60
2018-12-14T06:27:19.317Z,1.30
2018-12-14T06:28:20.255Z,1.20
2018-12-14T06:29:19.289Z,2.60
2018-12-14T06:30:20.268Z,2.10
2018-12-14T06:31:19.284Z,1.20
2018-12-14T06:32:19.271Z,2.50
2018-12-14T06:33:19.242Z,4.80
2018-12-14T06:34:19.230Z,3.00
2018-12-14T06:35:19.219Z,3.20
2018-12-14T06:36:19.252Z,5.60
2018-12-14T06:37:19.210Z,3.30
2018-12-14T06:38:19.184Z,3.30
2018-12-14T06:39:19.734Z,3.00
2018-12-14T06:40:19.169Z,2.80
2018-12-14T06:41:19.187Z,3.60
2018-12-14T06:42:19.727Z,5.00
2018-12-14T06:43:19.139Z,5.10
2018-12-14T06:44:19.739Z,4.10
2018-12-14T06:45:19.113Z,3.90
2018-12-14T06:46:19.242Z,4.40
2018-12-14T06:47:19.095Z,3.90
2018-12-14T06:48:19.133Z,4.50
2018-12-14T06:49:19.737Z,5.40
2018-12-14T06:50:19.059Z,4.90
2018-12-14T06:51:19.262Z,5.90
2018-12-14T06:52:19.732Z,4.40
2018-12-14T06:53:19.731Z,6.90
2018-12-14T06:54:19.017Z,5.00
2018-12-14T06:55:19.002Z,6.90
2018-12-14T06:56:19.008Z,5.00
2018-12-14T06:57:19.729Z,4.10
2018-12-14T06:58:18.970Z,5.50
2018-12-14T06:59:19.734Z,5.60
2018-12-14T07:00:18.971Z,6.20
2018-12-14T07:01:18.954Z,4.50
2018-12-14T07:02:18.935Z,5.90
2018-12-14T07:03:18.916Z,5.60
2018-12-14T07:04:18.906Z,5.00
2018-12-14T07:05:19.730Z,5.60
2018-12-14T07:06:19.258Z,5.90
2018-12-14T07:07:18.889Z,5.50
2018-12-14T07:08:19.733Z,6.30
2018-12-14T07:09:19.740Z,4.70
2018-12-14T07:10:19.731Z,4.70
2018-12-14T07:11:18.854Z,3.80
2018-12-14T07:12:18.818Z,5.10
2018-12-14T07:13:21.806Z,5.30
2018-12-14T07:14:18.798Z,5.30
2018-12-14T07:15:19.748Z,6.70
2018-12-14T07:16:19.246Z,4.60
2018-12-14T07:17:18.764Z,5.20
2018-12-14T07:18:18.756Z,5.40
2018-12-14T07:19:18.767Z,6.50
2018-12-14T07:20:18.732Z,5.60
2018-12-14T07:21:18.734Z,5.00
2018-12-14T07:22:19.230Z,5.00
2018-12-14T07:23:18.721Z,5.20
2018-12-14T07:24:18.691Z,5.00
2018-12-14T07:25:18.687Z,5.70
2018-12-14T07:26:18.687Z,5.20
2018-12-14T07:27:18.659Z,6.20
2018-12-14T07:28:18.713Z,4.80
2018-12-14T07:29:18.636Z,6.20
2018-12-14T07:30:18.622Z,6.10
2018-12-14T07:31:18.659Z,5.30
2018-12-14T07:32:18.605Z,6.00
2018-12-14T07:33:18.595Z,6.80
2018-12-14T07:34:18.593Z,5.10
2018-12-14T07:35:19.238Z,4.90
2018-12-14T07:36:18.576Z,8.40
2018-12-14T07:37:18.561Z,5.00
2018-12-14T07:38:18.539Z,7.60
2018-12-14T07:39:18.526Z,6.50
2018-12-14T07:40:18.529Z,10.20
2018-12-14T07:41:18.762Z,6.00
2018-12-14T07:42:18.507Z,6.50
2018-12-14T07:43:18.483Z,5.70
2018-12-14T07:44:18.497Z,6.70
2018-12-14T07:45:18.461Z,7.40
2018-12-14T07:46:18.766Z,6.80
2018-12-14T07:47:19.253Z,6.80
2018-12-14T07:48:18.429Z,5.80
2018-12-14T07:49:18.422Z,7.60
2018-12-14T07:50:18.408Z,4.50
2018-12-14T07:51:18.750Z,5.40
2018-12-14T07:52:18.399Z,5.20
2018-12-14T07:53:19.243Z,6.30
2018-12-14T07:54:18.391Z,9.50
2018-12-14T07:55:18.353Z,4.90
2018-12-14T07:56:18.754Z,9.90
2018-12-14T07:57:18.342Z,5.60
2018-12-14T07:58:18.325Z,5.70
2018-12-14T07:59:18.311Z,4.40
2018-12-14T08:00:18.298Z,5.50
2018-12-14T08:01:18.332Z,5.80
2018-12-14T08:02:18.279Z,6.00
2018-12-14T08:03:19.233Z,5.90
2018-12-14T08:04:18.255Z,5.50
2018-12-14T08:05:18.245Z,5.00
2018-12-14T08:06:18.230Z,7.20
2018-12-14T08:07:18.245Z,5.10
2018-12-14T08:08:18.208Z,4.30
2018-12-14T08:09:18.208Z,6.00
2018-12-14T08:10:18.185Z,6.40
2018-12-14T08:11:18.739Z,6.90
2018-12-14T08:12:18.249Z,5.10
2018-12-14T08:13:19.469Z,4.90
2018-12-14T08:14:18.150Z,6.50
2018-12-14T08:15:18.194Z,5.70
2018-12-14T08:16:18.131Z,5.30
2018-12-14T08:17:18.295Z,5.20
2018-12-14T08:18:18.099Z,5.40
2018-12-14T08:19:18.743Z,5.00
2018-12-14T08:20:18.083Z,4.50
2018-12-14T08:21:18.740Z,5.10
2018-12-14T08:22:18.137Z,5.30
2018-12-14T08:23:18.040Z,5.00
2018-12-14T08:24:18.036Z,6.40
2018-12-14T08:25:18.128Z,4.60
2018-12-14T08:26:18.038Z,6.20
2018-12-14T08:27:18.276Z,4.70
2018-12-14T08:28:18.001Z,5.80
2018-12-14T08:29:17.978Z,5.60
2018-12-14T08:30:17.968Z,5.10
2018-12-14T08:31:17.976Z,7.90
2018-12-14T08:32:18.269Z,5.20
2018-12-14T08:33:17.970Z,5.10
2018-12-14T08:34:18.757Z,3.00
2018-12-14T08:35:17.929Z,5.50
2018-12-14T08:36:18.759Z,4.50
2018-12-14T08:37:17.908Z,4.00
2018-12-14T08:38:18.737Z,4.50
2018-12-14T08:39:18.738Z,4.50
2018-12-14T08:40:17.849Z,3.80
2018-12-14T08:41:18.758Z,5.00
2018-12-14T08:42:18.250Z,4.00
2018-12-14T08:43:18.740Z,4.30
2018-12-14T08:44:19.081Z,5.70
2018-12-14T08:45:17.796Z,6.40
2018-12-14T08:46:17.784Z,7.40
2018-12-14T08:47:18.307Z,6.20
2018-12-14T08:48:17.769Z,7.40
2018-12-14T08:49:17.760Z,5.70
2018-12-14T08:50:18.253Z,7.20
2018-12-14T08:51:18.240Z,6.00
2018-12-14T08:52:18.264Z,8.30
2018-12-14T08:53:17.707Z,4.60
2018-12-14T08:54:17.721Z,6.40
2018-12-14T08:55:18.244Z,11.10
2018-12-14T08:56:17.678Z,6.70
2018-12-14T08:57:17.673Z,6.10
2018-12-14T08:58:17.647Z,6.20
2018-12-14T08:59:18.267Z,7.80
2018-12-14T09:00:17.623Z,5.80
2018-12-14T09:01:18.244Z,6.90
2018-12-14T09:02:17.616Z,6.80
2018-12-14T09:03:18.251Z,8.50
2018-12-14T09:04:17.581Z,6.60
2018-12-14T09:05:18.243Z,6.50
2018-12-14T09:06:17.577Z,6.10
2018-12-14T09:07:24.417Z,6.60
2018-12-14T09:08:17.552Z,8.30
2018-12-14T09:09:17.529Z,7.00
2018-12-14T09:10:18.243Z,5.60
2018-12-14T09:11:17.517Z,6.10
2018-12-14T09:12:17.504Z,4.50
2018-12-14T09:13:17.479Z,7.20
2018-12-14T09:14:18.245Z,6.20
2018-12-14T09:15:18.281Z,7.80
2018-12-14T09:16:17.449Z,6.30
2018-12-14T09:17:18.326Z,7.60
2018-12-14T09:18:17.456Z,7.90
2018-12-14T09:19:17.414Z,6.30
2018-12-14T09:20:17.415Z,6.70
2018-12-14T09:21:17.409Z,6.10
2018-12-14T09:22:17.789Z,6.80
2018-12-14T09:23:18.278Z,7.10
2018-12-14T09:24:17.365Z,6.70
2018-12-14T09:25:17.350Z,5.60
2018-12-14T09:26:17.388Z,7.00
2018-12-14T09:27:17.409Z,7.40
2018-12-14T09:28:17.311Z,6.70
2018-12-14T09:29:18.243Z,5.30
2018-12-14T09:30:17.318Z,5.90
2018-12-14T09:31:17.331Z,5.70
2018-12-14T09:32:17.329Z,6.10
2018-12-14T09:33:17.278Z,5.60
2018-12-14T09:34:17.250Z,5.40
2018-12-14T09:35:17.254Z,5.70
2018-12-14T09:36:17.796Z,4.70
2018-12-14T09:37:17.343Z,7.10
2018-12-14T09:38:17.208Z,7.30
2018-12-14T09:39:17.760Z,5.70
2018-12-14T09:40:17.197Z,7.40
2018-12-14T09:41:17.197Z,6.30
2018-12-14T09:42:17.207Z,5.70
2018-12-14T09:43:17.148Z,9.60
2018-12-14T09:44:17.833Z,6.70
2018-12-14T09:45:17.125Z,7.10
2018-12-14T09:46:17.148Z,6.50
2018-12-14T09:47:17.772Z,6.20
2018-12-14T09:48:17.749Z,7.10
2018-12-14T09:49:17.082Z,7.50
2018-12-14T09:50:17.070Z,7.40
2018-12-14T09:51:17.057Z,6.30
2018-12-14T09:52:17.774Z,7.40
2018-12-14T09:53:17.798Z,6.00
2018-12-14T09:54:17.069Z,7.40
2018-12-14T09:55:17.907Z,10.90
2018-12-14T09:56:17.003Z,8.80
2018-12-14T09:57:17.288Z,6.10
2018-12-14T09:58:16.979Z,9.70
2018-12-14T09:59:17.742Z,11.40
2018-12-14T10:00:16.997Z,7.60
2018-12-14T10:01:17.010Z,9.70
2018-12-14T10:02:17.274Z,12.00
2018-12-14T10:03:16.933Z,9.50
2018-12-14T10:04:16.953Z,9.80
2018-12-14T10:05:16.912Z,8.30
2018-12-14T10:06:16.897Z,13.20
2018-12-14T10:07:16.894Z,10.30
2018-12-14T10:08:16.877Z,7.00
2018-12-14T10:09:17.806Z,11.50
2018-12-14T10:10:16.867Z,10.80
2018-12-14T10:11:17.769Z,9.20
2018-12-14T10:12:16.857Z,8.10
2018-12-14T10:13:17.752Z,12.10
2018-12-14T10:14:16.811Z,11.80
2018-12-14T10:15:17.753Z,9.90
2018-12-14T10:16:17.745Z,8.10
2018-12-14T10:17:17.746Z,8.70
2018-12-14T10:18:16.794Z,8.50
2018-12-14T10:19:17.262Z,7.50
2018-12-14T10:20:17.256Z,9.90
2018-12-14T10:21:16.749Z,9.00
2018-12-14T10:22:16.739Z,7.90
2018-12-14T10:23:16.808Z,8.60
2018-12-14T10:24:17.268Z,8.90
2018-12-14T10:25:17.349Z,9.90
2018-12-14T10:26:17.249Z,11.00
2018-12-14T10:27:16.653Z,15.40
2018-12-14T10:28:16.685Z,10.70
2018-12-14T10:29:16.629Z,8.50
2018-12-14T10:30:16.647Z,9.50
2018-12-14T10:31:16.645Z,8.00
2018-12-14T10:32:16.598Z,10.40
2018-12-14T10:33:16.614Z,10.30
2018-12-14T10:34:17.267Z,11.30
2018-12-14T10:35:17.261Z,9.00
2018-12-14T10:36:16.553Z,8.90
2018-12-14T10:37:16.538Z,7.00
2018-12-14T10:38:16.553Z,10.30
2018-12-14T10:39:16.556Z,11.00
2018-12-14T10:40:17.244Z,10.60
2018-12-14T10:41:16.584Z,9.00
2018-12-14T10:42:16.499Z,8.50
2018-12-14T10:43:16.755Z,10.20
2018-12-14T10:44:16.524Z,8.50
2018-12-14T10:45:17.340Z,9.80
2018-12-14T10:46:17.250Z,10.30
2018-12-14T10:47:16.432Z,10.00
2018-12-14T10:48:16.763Z,9.50
2018-12-14T10:49:17.253Z,10.30
2018-12-14T10:50:16.401Z,8.70
2018-12-14T10:51:16.388Z,8.50
2018-12-14T10:52:16.377Z,7.70
2018-12-14T10:53:16.394Z,10.50
2018-12-14T10:54:17.258Z,9.70
2018-12-14T10:55:16.365Z,13.60
2018-12-14T10:56:17.309Z,10.20
2018-12-14T10:57:16.369Z,14.40
2018-12-14T10:58:16.324Z,7.50
2018-12-14T10:59:17.314Z,9.20
2018-12-14T11:00:16.299Z,10.10
2018-12-14T11:01:17.255Z,11.90
2018-12-14T11:02:17.312Z,9.00
2018-12-14T11:03:16.276Z,12.60
2018-12-14T11:04:16.250Z,9.80
2018-12-14T11:05:16.244Z,8.90
2018-12-14T11:06:16.871Z,9.40
2018-12-14T11:07:16.208Z,9.10
2018-12-14T11:08:16.214Z,8.20
2018-12-14T11:09:16.195Z,10.10
2018-12-14T11:10:16.222Z,10.70
2018-12-14T11:11:16.168Z,8.30
2018-12-14T11:12:16.180Z,9.40
2018-12-14T11:13:16.275Z,9.50
2018-12-14T11:14:16.136Z,10.40
2018-12-14T11:15:16.159Z,9.30
2018-12-14T11:16:16.753Z,7.90
2018-12-14T11:17:16.163Z,7.40
2018-12-14T11:18:16.099Z,8.80
2018-12-14T11:19:16.798Z,11.80
2018-12-14T11:20:16.746Z,9.10
2018-12-14T11:21:17.438Z,9.50
2018-12-14T11:22:16.045Z,9.00
2018-12-14T11:23:16.041Z,13.90
2018-12-14T11:24:16.764Z,7.80
2018-12-14T11:25:16.010Z,11.80
2018-12-14T11:26:16.755Z,10.60
2018-12-14T11:27:16.000Z,8.60
2018-12-14T11:28:16.003Z,9.50
2018-12-14T11:29:16.754Z,10.10
2018-12-14T11:30:15.980Z,8.80
2018-12-14T11:31:15.939Z,9.70
2018-12-14T11:32:15.929Z,9.70
2018-12-14T11:33:16.324Z,13.90
2018-12-14T11:34:15.911Z,9.40
2018-12-14T11:35:16.749Z,8.30
2018-12-14T11:36:16.746Z,13.90
2018-12-14T11:37:15.881Z,11.40
2018-12-14T11:38:15.876Z,10.50
2018-12-14T11:39:16.747Z,13.20
2018-12-14T11:40:15.843Z,12.80
2018-12-14T11:41:18.624Z,10.60
2018-12-14T11:42:15.818Z,10.30
2018-12-14T11:43:15.823Z,12.00
2018-12-14T11:44:20.649Z,11.80
2018-12-14T11:45:15.788Z,14.00
2018-12-14T11:46:15.776Z,13.40
2018-12-14T11:47:18.324Z,12.70
2018-12-14T11:48:15.781Z,14.30
2018-12-14T11:49:16.246Z,11.00
2018-12-14T11:50:15.729Z,12.10
2018-12-14T11:51:16.249Z,10.50
2018-12-14T11:52:15.710Z,12.50
2018-12-14T11:53:15.775Z,11.60
2018-12-14T11:54:15.699Z,17.40
2018-12-14T11:55:16.255Z,10.70
2018-12-14T11:56:16.280Z,11.20
2018-12-14T11:57:16.266Z,11.50
2018-12-14T11:58:15.658Z,12.20
2018-12-14T11:59:15.661Z,14.90
2018-12-14T12:00:16.249Z,12.10
2018-12-14T12:01:16.258Z,15.20
2018-12-14T12:02:15.628Z,12.70
2018-12-14T12:03:15.603Z,14.10
2018-12-14T12:04:16.267Z,16.60
2018-12-14T12:05:16.259Z,13.60
2018-12-14T12:06:15.557Z,14.70
2018-12-14T12:07:16.253Z,16.00
2018-12-14T12:08:15.546Z,18.60
2018-12-14T12:09:15.526Z,16.60
2018-12-14T12:10:15.508Z,19.20
2018-12-14T12:11:16.256Z,16.50
2018-12-14T12:12:15.483Z,16.40
2018-12-14T12:13:15.498Z,18.20
2018-12-14T12:14:16.278Z,17.20
2018-12-14T12:15:16.325Z,20.10
2018-12-14T12:16:16.250Z,16.90
2018-12-14T12:17:16.249Z,14.20
2018-12-14T12:18:16.288Z,16.50
2018-12-14T12:19:15.762Z,21.10
2018-12-14T12:20:16.251Z,15.90
2018-12-14T12:21:15.384Z,17.90
2018-12-14T12:22:16.258Z,17.90
2018-12-14T12:23:15.489Z,19.00
2018-12-14T12:24:15.363Z,18.00
2018-12-14T12:25:16.249Z,19.00
2018-12-14T12:26:15.324Z,17.00
2018-12-14T12:27:15.309Z,17.40
2018-12-14T12:28:15.309Z,16.80
2018-12-14T12:29:16.274Z,18.90
2018-12-14T12:30:15.284Z,18.50
2018-12-14T12:31:15.272Z,18.20
2018-12-14T12:32:16.399Z,16.90
2018-12-14T12:33:15.250Z,14.70
2018-12-14T12:34:15.313Z,27.20
2018-12-14T12:35:15.231Z,14.70
2018-12-14T12:36:15.340Z,14.20
2018-12-14T12:37:15.230Z,13.80
2018-12-14T12:38:15.755Z,14.30
2018-12-14T12:39:15.778Z,14.80
2018-12-14T12:40:15.183Z,16.10
2018-12-14T12:41:15.163Z,15.50
2018-12-14T12:42:15.147Z,14.00
2018-12-14T12:43:15.213Z,17.00
2018-12-14T12:44:15.795Z,15.20
2018-12-14T12:45:15.777Z,14.30
2018-12-14T12:46:15.822Z,14.20
2018-12-14T12:47:15.763Z,17.30
2018-12-14T12:48:15.845Z,13.30
2018-12-14T12:49:15.272Z,14.50
2018-12-14T12:50:15.752Z,21.80
2018-12-14T12:51:15.768Z,20.00
2018-12-14T12:52:15.033Z,17.20
2018-12-14T12:53:15.759Z,14.50
2018-12-14T12:54:15.774Z,15.50
2018-12-14T12:55:15.030Z,31.90
2018-12-14T12:56:15.840Z,13.90
2018-12-14T12:57:14.982Z,14.80
2018-12-14T12:58:14.974Z,19.80
2018-12-14T12:59:15.775Z,14.80
2018-12-14T13:00:15.765Z,11.80
2018-12-14T13:01:14.932Z,15.10
2018-12-14T13:02:15.756Z,11.80
2018-12-14T13:03:15.818Z,12.80
2018-12-14T13:04:15.278Z,13.90
2018-12-14T13:05:15.748Z,13.80
2018-12-14T13:06:15.773Z,15.40
2018-12-14T13:07:15.784Z,16.40
2018-12-14T13:08:15.769Z,13.10
2018-12-14T13:09:15.782Z,15.90
2018-12-14T13:10:14.847Z,13.10
2018-12-14T13:11:15.983Z,11.20
2018-12-14T13:12:14.814Z,10.90
2018-12-14T13:13:15.816Z,12.40